Olden, Texas
Current Conditions -  °F | °C
As of 12:55 AM on Sunday 26 Oct 2014 (Local Time) from KBKD Reporting Station
Clear Clear  
Wind Chill: 73°   Ceiling: Unl
Heat Index: 73°   Visibility: 7mi
Dew Point: 55°   Wind: 8mph
Humidity: 53%   Direction: 180°S
Pressure: 30.03"   Gusts: NA
Location:  32.42°N, 98.75°W
Report Text: KBKD 260555Z AUTO 18007KT 7SM CLR 23/13 A3003 RMK AO2 T02250126 10289 20225 403330173
Loading
Personal Weather Stations






























Interactive Weather Map
Tropical Storm Tracking
New forecast layout! Learn more

10-Day Weather Forecast

Advertisements
Track Severe Weather on mobile